Adams, OR

10:18 PM PDT on August 28, 2014 (GMT -0700)
Weston Middle School | Change Station
CLOSE
Current Station
Personal Weather Station
Location: Weston, OR
Elevation: 1914 ft
Nearby Weather Stations

Elev 1914 ft 45.81 °N, 118.42 °W | Updated 7 seconds ago

Clear
Clear
70.1 °F
Feels Like 75 °F
N
4.5
Wind Variable Wind from West
Gusts 5.8 mph

Today
High -- | Low -- °F
--% Chance of Precip.
Yesterday
High -- | Low -- °F
Precip. -- in
6:10 AM 7:39 PM
Waxing Crescent, 12% visible
Pressure 29.91 in
Visibility 10.0 miles
Clouds Clear
Heat Index 75 °F
Dew Point 32 °F
Humidity 24%
Rainfall 0.00 in
Snow Depth Not available.
UV 0 out of 12
Pollen 6.60 out of 12
Air Quality Not available.
Flu Activity Not available.
METAR KPDT 290453Z AUTO 24014KT 10SM CLR 24/06 A2996 RMK AO2 SLP127 T02390061

More Conditions Fewer Conditions

Pressure 29.91 in
Visibility 10.0 miles
Clouds Clear
Heat Index 75 °F
Dew Point 32 °F
Humidity 24%
Rainfall 0.00 in
Snow Depth Not available.
UV 0 out of 12
Pollen 6.60 out of 12
Air Quality Not available.
Flu Activity Not available.
METAR KPDT 290453Z AUTO 24014KT 10SM CLR 24/06 A2996 RMK AO2 SLP127 T02390061

More Conditions Fewer Conditions

10-Day Weather Forecast

Almanac

Astronomy

Aug. 28, 2014 Rise Set
Actual Time 6:10 AM PDT 7:39 PM PDT
Civil Twilight 5:39 AM PDT 8:10 PM PDT
Nautical Twilight 5:01 AM PDT 8:48 PM PDT
Astronomical Twilight 4:21 AM PDT 9:28 PM PDT
Moon 9:18 AM PDT (8/28) 8:53 PM PDT (8/28)
Length of Visible Light 14h 31m
Length of Day
13h 29m
Tomorrow will be 3m 4s shorter.
Waxing Crescent, 12% of the Moon is Illuminated
Aug 29
Waxing Crescent
Sep 2
First Quarter
Sep 8
Full
Sep 15
Last Quarter
Sep 24
New

Yesterday's Extremes

State Highs State Lows

Community

WunderPhotos

Upload Photos

1,748,192 photos uploaded!

Nearby

Snow Depth

Station Depth Elevation
Bowman Springs 0 in 4580 ft
Lucky Strike 0 in 5050 ft
Beaver Reservoir 1 in 5150 ft
Arbuckle Mountain 0 in 5400 ft
Madison Butte 0 in 5250 ft

Earthquake Activity

City Distance Mag. Time & Date
No recent earthquake activity has been reported nearby.
Minimum magnitude displayed is 2.5.

Coastal Water Temperatures

Place Temperature
No Stations Reporting

Nearby Weather Stations